• Join FlightAware (Why Join?)
  • Login
  • US Flag 
05:02AM EDT


 

Airport Tracker/Info


-or-


 

Live Flight TrackerFlight Track Log ✈ AWE11 ✈ 27-Jun-2013 ✈ KPHX - KORD

Flight Track Log - Related Links

Times and Time Zones

All times are in EDT time to prevent confusion due to time zone crossing. See the AWE11 flight status page for this flight to view local times or setup timezone preferences in your user account.

Time Position Orientation Groundspeed Altitude Reporting Facility
EDT Latitude Longitude Course Direction KTS MPH feet Rate Location/Type
03:25AM 33.4310 -112.0240 269° West 180 207 1,600  Level FlightAware
03:25AM 33.4310 -112.0330 270° West 172 198 2,200 1,680 Climbing FlightAware
03:26AM 33.4310 -112.0730 270° West 191 220 3,100 960 Climbing FlightAware
03:26AM 33.4320 -112.1070 272° West 230 265 3,200 780 Climbing FlightAware
03:27AM 33.4320 -112.1470 270° West 244 281 3,900 1,380 Climbing FlightAware
03:27AM 33.4410 -112.1850 286° West 255 293 4,600 1,260 Climbing FlightAware
03:28AM 33.4530 -112.1960 323° Northwest 263 303 4,800 1,320 Climbing FlightAware
03:28AM 33.4710 -112.2010 347° North 271 312 5,200 1,680 Climbing FlightAware
03:28AM 33.5000 -112.1880 20° North 282 325 5,900 1,920 Climbing FlightAware
03:28AM 33.5130 -112.1770 35° Northeast 281 323 6,400 1,980 Climbing FlightAware
03:29AM 33.5480 -112.1480 35° Northeast 283 326 7,400 1,860 Climbing FlightAware
03:29AM 33.5650 -112.1340 34° Northeast 284 327 7,900 1,620 Climbing FlightAware
03:30AM 33.5950 -112.1100 34° Northeast 289 333 8,600 1,680 Climbing FlightAware
03:30AM 33.6090 -112.0980 36° Northeast 290 334 9,000 1,980 Climbing FlightAware
03:30AM 33.6420 -112.0710 34° Northeast 290 334 10,000 1,320 Climbing FlightAware
03:31AM 33.6880 -112.0330 34° Northeast 316 364 10,600 780 Climbing FlightAware
03:32AM 33.7440 -111.9860 35° Northeast 349 402 11,100 840 Climbing FlightAware
03:32AM 33.8020 -111.9380 35° Northeast 368 423 11,800 1,260 Climbing FlightAware
03:33AM 33.8580 -111.8910 35° Northeast 370 426 12,900 1,440 Climbing FlightAware
03:34AM 33.9180 -111.8410 35° Northeast 382 440 13,800 1,440 Climbing FlightAware
03:34AM 33.9720 -111.7960 35° Northeast 386 444 14,800 1,380 Climbing FlightAware
03:35AM 34.0460 -111.7350 34° Northeast 399 459 15,800 1,560 Climbing FlightAware
03:36AM 34.1170 -111.7030 20° North 395 455 17,200 1,680 Climbing FlightAware
03:37AM 34.1930 -111.6730 18° North 402 463 18,200 1,380 Climbing FlightAware
03:37AM 34.2650 -111.6370 22° Northeast 403 464 19,200 1,320 Climbing FlightAware
03:38AM 34.3210 -111.5810 40° Northeast 410 472 20,000 1,200 Climbing FlightAware
03:39AM 34.3840 -111.5170 40° Northeast 417 480 20,900 1,260 Climbing FlightAware
03:39AM 34.4460 -111.4530 40° Northeast 424 488 21,800 1,020 Climbing FlightAware
03:40AM 34.5130 -111.3840 40° Northeast 437 503 22,400 840 Climbing FlightAware
03:41AM 34.5810 -111.3140 40° Northeast 444 511 23,100 960 Climbing FlightAware
03:42AM 34.6430 -111.2500 40° Northeast 448 516 23,800 900 Climbing FlightAware
03:42AM 34.7100 -111.1800 41° Northeast 454 522 24,400 900 Climbing FlightAware
03:43AM 34.7820 -111.1060 40° Northeast 460 529 25,100 1,080 Climbing FlightAware
03:44AM 34.8400 -111.0460 40° Northeast 454 522 25,900 1,140 Climbing FlightAware
03:44AM 34.9140 -110.9690 40° Northeast 455 524 26,700 780 Climbing FlightAware
03:48AM 35.2530 -110.6140 40° Northeast 474 545 29,300 780 Climbing FlightAware
03:49AM 35.3240 -110.5380 41° Northeast 470 541 30,000 1,020 Climbing FlightAware
03:49AM 35.3940 -110.4640 41° Northeast 466 536 30,800 1,020 Climbing FlightAware
03:50AM 35.4520 -110.4030 41° Northeast 463 533 31,400 1,020 Climbing FlightAware
03:51AM 35.5170 -110.3330 41° Northeast 460 529 32,100 600 Climbing FlightAware
03:52AM 35.6210 -110.2230 41° Northeast 468 539 32,500 780 Climbing FlightAware
03:52AM 35.6850 -110.1540 41° Northeast 455 524 33,500 1,020 Climbing FlightAware
03:53AM 35.7550 -110.0790 41° Northeast 455 524 34,000 300 Climbing FlightAware
03:54AM 35.8200 -110.0090 41° Northeast 461 531 34,000  Level FlightAware
03:54AM 35.8870 -109.9370 41° Northeast 462 532 34,000  Level FlightAware
03:55AM 35.9570 -109.8620 41° Northeast 463 533 34,000  Level FlightAware
03:56AM 36.0190 -109.7940 42° Northeast 464 534 34,000  Level FlightAware
03:56AM 36.0900 -109.7170 41° Northeast 461 531 34,000  Level FlightAware
03:57AM 36.1380 -109.6660 41° Northeast 461 531 34,000  Level FlightAware
03:58AM 36.2040 -109.5950 41° Northeast 461 531 34,000  Level FlightAware
03:58AM 36.2540 -109.5400 42° Northeast 461 531 34,000  Level FlightAware
03:59AM 36.3190 -109.4710 41° Northeast 461 531 34,000  Level FlightAware
04:00AM 36.3690 -109.4160 42° Northeast 461 531 34,000  Level FlightAware
04:01AM 36.4350 -109.3450 41° Northeast 461 531 34,000  Level FlightAware
04:01AM 36.4840 -109.2920 41° Northeast 461 531 34,000  Level FlightAware
04:02AM 36.5500 -109.2210 41° Northeast 461 531 34,000  Level FlightAware
04:03AM 36.5990 -109.1680 41° Northeast 461 531 34,000  Level FlightAware
04:03AM 36.6650 -109.0970 41° Northeast 461 531 34,000  Level FlightAware
04:04AM 36.7150 -109.0420 41° Northeast 461 531 34,000  Level FlightAware
04:05AM 36.7770 -108.9750 41° Northeast 461 531 34,000  Level FlightAware
04:06AM 36.8430 -108.9040 41° Northeast 461 531 34,000  Level FlightAware
04:06AM 37.0150 -108.6970 44° Northeast 461 531 34,000  Level FlightAware
04:07AM 37.0970 -108.6050 42° Northeast 461 531 34,000  Level FlightAware
04:08AM 37.1610 -108.5330 42° Northeast 463 533 34,000  Level FlightAware
04:08AM 37.2250 -108.4600 42° Northeast 468 539 34,000  Level FlightAware
04:09AM 37.2970 -108.3790 42° Northeast 460 529 34,000  Level FlightAware
04:10AM 37.3680 -108.2990 42° Northeast 460 529 34,000  Level FlightAware
04:10AM 37.4000 -108.2630 42° Northeast 463 533 34,000  Level FlightAware
04:11AM 37.4760 -108.1760 42° Northeast 465 535 34,000  Level FlightAware
04:12AM 37.5610 -108.0780 42° Northeast 468 539 34,000 60 Level FlightAware
04:13AM 37.6310 -107.9980 42° Northeast 468 539 34,100 300 Climbing FlightAware
04:13AM 37.6970 -107.9220 42° Northeast 460 529 34,500 600 Climbing FlightAware
04:14AM 37.7680 -107.8410 42° Northeast 458 527 35,000 360 Climbing FlightAware
04:15AM 37.8220 -107.7780 43° Northeast 465 535 35,000  Level FlightAware
04:15AM 37.9020 -107.6860 42° Northeast 462 532 35,000  Level FlightAware
04:16AM 37.9650 -107.6120 43° Northeast 462 532 35,000  Level FlightAware
04:17AM 38.0280 -107.5390 42° Northeast 465 535 35,000  Level FlightAware
04:17AM 38.0990 -107.4560 43° Northeast 467 537 35,000  Level FlightAware
04:18AM 38.1630 -107.3810 43° Northeast 462 532 35,000  Level FlightAware
04:19AM 38.2270 -107.3060 43° Northeast 461 531 35,000  Level FlightAware
04:19AM 38.2900 -107.2320 43° Northeast 463 533 35,000  Level FlightAware
04:20AM 38.3630 -107.1460 43° Northeast 467 537 35,000 60 Level FlightAware
04:21AM 38.4260 -107.0530 49° Northeast 468 539 35,100 60 Climbing FlightAware
04:22AM 38.4660 -106.9540 63° Northeast 466 536 35,100 -120 Level FlightAware
04:22AM 38.4910 -106.8470 73° East 466 536 35,000 -120 Descending FlightAware
04:23AM 38.5120 -106.7400 76° East 464 534 35,000  Level FlightAware
04:24AM 38.5330 -106.6340 76° East 463 533 35,000  Level FlightAware
04:24AM 38.5560 -106.5150 76° East 461 531 35,000  Level FlightAware
04:25AM 38.5770 -106.4060 76° East 460 529 35,000  Level FlightAware
04:26AM 38.6000 -106.2880 76° East 459 528 35,000  Level FlightAware
04:27AM 38.6210 -106.1800 76° East 460 529 35,000  Level FlightAware
04:27AM 38.6410 -106.0740 76° East 457 526 35,000  Level FlightAware
04:28AM 38.6630 -105.9600 76° East 459 528 35,000  Level FlightAware
04:29AM 38.6850 -105.8420 77° East 458 527 35,000  Level FlightAware
04:29AM 38.7060 -105.7320 76° East 457 526 35,000  Level FlightAware
04:32AM 38.7860 -105.3030 76° East 462 532 35,000  Level FlightAware
04:33AM 38.8040 -105.2030 77° East 466 536 35,000  Level FlightAware
04:33AM 38.8260 -105.0840 77° East 470 541 35,000 60 Level FlightAware
04:34AM 38.8480 -104.9630 77° East 474 545 35,100 60 Climbing FlightAware
04:35AM 38.8670 -104.8550 77° East 475 547 35,100  Level FlightAware
04:36AM 38.8930 -104.7110 77° East 475 547 35,100  Level FlightAware
04:37AM 38.9170 -104.5780 77° East 473 544 35,100 -120 Level FlightAware
04:37AM 38.9350 -104.4750 77° East 470 541 35,000 -120 Descending FlightAware
04:38AM 38.9570 -104.3510 77° East 466 536 35,000  Level FlightAware
04:39AM 38.9760 -104.2380 78° East 463 533 35,000  Level FlightAware
04:39AM 38.9930 -104.1390 78° East 469 540 35,000  Level FlightAware
04:40AM 39.0150 -104.0130 77° East 476 548 35,000  Level FlightAware
04:41AM 39.0360 -103.8930 77° East 475 547 35,000  Level FlightAware
04:41AM 39.0550 -103.7810 78° East 473 544 35,000  Level FlightAware
04:42AM 39.0750 -103.6630 78° East 470 541 35,000  Level FlightAware
04:43AM 39.0910 -103.5630 78° East 469 540 35,000  Level FlightAware
04:44AM 39.1130 -103.4340 78° East 468 539 35,000  Level FlightAware
04:44AM 39.1320 -103.3190 78° East 466 536 35,000  Level FlightAware
04:45AM 39.1500 -103.2100 78° East 467 537 35,000  Level FlightAware
04:46AM 39.1680 -103.0960 78° East 469 540 35,000  Level FlightAware
04:47AM 39.1930 -102.9450 78° East 473 544 35,000  Level FlightAware
04:47AM 39.2110 -102.8360 78° East 474 545 35,000 60 Level FlightAware
04:48AM 39.2300 -102.7140 79° East 476 548 35,100 60 Climbing FlightAware
04:49AM 39.2530 -102.5740 78° East 477 549 35,100  Level FlightAware
04:50AM 39.2840 -102.3740 79° East 474 545 35,100 -60 Level FlightAware
04:51AM 39.3040 -102.2510 78° East 471 542 35,000 -120 Descending FlightAware
04:51AM 39.3120 -102.2000 79° East 471 542 35,000  Level FlightAware
04:52AM 39.3320 -102.0620 79° East 468 539 35,000  Level FlightAware
04:53AM 39.3470 -101.9690 78° East 468 539 35,000  Level FlightAware
04:53AM 39.3650 -101.8620 78° East 468 539 35,000  Level FlightAware
04:54AM 39.3780 -101.7800 78° East 468 539 35,000  Level FlightAware
04:55AM 39.3970 -101.6690 77° East 468 539 35,000  Level FlightAware
04:55AM 39.4110 -101.5820 78° East 468 539 35,000  Level FlightAware
04:56AM 39.4290 -101.4700 78° East 468 539 35,000  Level FlightAware
04:57AM 39.4420 -101.3890 78° East 468 539 35,000  Level FlightAware
04:57AM 39.4610 -101.2770 78° East 468 539 35,000  Level FlightAware
04:58AM 39.4750 -101.1930 78° East 468 539 35,000  Level FlightAware
04:59AM 39.4940 -101.0760 78° East 468 539 35,000  Level FlightAware
05:01AM 39.5370 -100.8150 78° East 468 539 35,000  Level FlightAware
05:01AM 39.5889 -100.4933 78° East 479 551 35,000  Level Denver Center
05:08AM 39.7566 -99.4322 78° East 468 539 35,000  Level FlightAware ADS-B
05:08AM 39.7693 -99.3493 79° East 470 541 35,000  Level FlightAware ADS-B
05:09AM 39.7826 -99.2612 79° East 477 549 35,000  Level FlightAware ADS-B
05:10AM 39.8093 -99.0828 79° East 475 547 35,000  Level FlightAware ADS-B
05:10AM 39.8255 -98.9739 79° East 477 549 35,000  Level FlightAware ADS-B
05:11AM 39.8393 -98.8809 79° East 478 550 35,000  Level FlightAware ADS-B
05:11AM 39.8526 -98.7907 79° East 479 551 35,000  Level FlightAware ADS-B
05:12AM 39.8652 -98.7042 79° East 477 549 35,000  Level FlightAware ADS-B
05:12AM 39.8775 -98.6192 79° East 477 549 35,000  Level FlightAware ADS-B
05:13AM 39.8898 -98.5343 79° East 476 548 35,000  Level FlightAware ADS-B
05:13AM 39.9019 -98.4499 79° East 476 548 35,000  Level FlightAware ADS-B
05:14AM 39.9139 -98.3656 79° East 475 547 35,000  Level FlightAware ADS-B
05:14AM 39.9260 -98.2806 79° East 475 547 35,000  Level FlightAware ADS-B
05:15AM 39.9384 -98.1934 79° East 475 547 35,000  Level FlightAware ADS-B
05:15AM 39.9504 -98.1078 80° East 476 548 35,000  Level FlightAware ADS-B
05:16AM 39.9622 -98.0234 80° East 475 547 35,000  Level FlightAware ADS-B
05:16AM 39.9741 -97.9373 80° East 476 548 35,000  Level FlightAware ADS-B
05:17AM 39.9875 -97.8406 80° East 478 550 35,000  Level FlightAware ADS-B
05:18AM 39.9993 -97.7555 80° East 479 551 35,000  Level FlightAware ADS-B
05:18AM 40.0111 -97.6683 80° East 482 555 35,000  Level FlightAware ADS-B
05:19AM 40.0229 -97.5819 80° East 484 557 35,000  Level FlightAware ADS-B
05:19AM 40.0346 -97.4952 80° East 486 559 35,000 60 Level FlightAware ADS-B
05:20AM 40.0462 -97.4085 80° East 488 562 35,100 60 Climbing FlightAware ADS-B
05:20AM 40.0579 -97.3201 80° East 489 563 35,100 -120 Level FlightAware ADS-B
05:21AM 40.0697 -97.2315 80° East 487 560 35,000 -120 Descending FlightAware ADS-B
05:21AM 40.0812 -97.1443 80° East 487 560 35,000  Level FlightAware ADS-B
05:22AM 40.0926 -97.0568 80° East 488 562 35,000  Level FlightAware ADS-B
05:22AM 40.1041 -96.9690 80° East 488 562 35,000  Level FlightAware ADS-B
05:23AM 40.1155 -96.8807 80° East 488 562 35,000  Level FlightAware ADS-B
05:23AM 40.1267 -96.7936 80° East 488 562 35,000  Level FlightAware ADS-B
05:24AM 40.1387 -96.6989 81° East 488 562 35,000  Level FlightAware ADS-B
05:24AM 40.1499 -96.6116 80° East 488 562 35,000  Level FlightAware ADS-B
05:25AM 40.1608 -96.5243 81° East 488 562 35,000  Level FlightAware ADS-B
05:25AM 40.1721 -96.4348 81° East 489 563 35,000  Level FlightAware ADS-B
05:26AM 40.1831 -96.3472 81° East 488 562 35,000  Level FlightAware ADS-B
05:26AM 40.1940 -96.2587 81° East 489 563 35,000  Level FlightAware ADS-B
05:27AM 40.2018 -96.2003 80° East 488 562 35,000  Level FlightAware ADS-B
05:27AM 40.2167 -96.1142 77° East 481 554 35,000  Level FlightAware ADS-B
05:28AM 40.2326 -96.0223 77° East 473 544 35,000  Level FlightAware ADS-B
05:28AM 40.2488 -95.9297 77° East 473 544 35,000  Level FlightAware ADS-B
05:29AM 40.2635 -95.8447 77° East 477 549 35,000  Level FlightAware ADS-B
05:29AM 40.2786 -95.7568 77° East 479 551 35,000  Level FlightAware ADS-B
05:30AM 40.2937 -95.6686 77° East 478 550 35,000 -420 Level FlightAware ADS-B
05:30AM 40.3083 -95.5831 77° East 480 552 34,600 -840 Descending FlightAware ADS-B
05:31AM 40.3230 -95.4959 78° East 478 550 34,200 -900 Descending FlightAware ADS-B
05:31AM 40.3375 -95.4100 77° East 479 551 33,700 -1,020 Descending FlightAware ADS-B
05:32AM 40.3525 -95.3212 77° East 485 558 33,200 -600 Descending FlightAware ADS-B
05:32AM 40.3741 -95.1925 78° East 493 567 33,000 -180 Descending FlightAware ADS-B
05:33AM 40.3889 -95.1030 78° East 497 572 33,000  Level FlightAware ADS-B
05:33AM 40.4035 -95.0145 78° East 497 572 33,000  Level FlightAware ADS-B
05:34AM 40.4181 -94.9257 78° East 499 574 33,000  Level FlightAware ADS-B
05:34AM 40.4329 -94.8347 78° East 500 575 33,000  Level FlightAware ADS-B
05:35AM 40.4474 -94.7446 78° East 501 577 33,000  Level FlightAware ADS-B
05:35AM 40.4620 -94.6543 78° East 501 577 33,000  Level FlightAware ADS-B
05:36AM 40.4766 -94.5638 78° East 501 577 33,000  Level FlightAware ADS-B
05:37AM 40.4913 -94.4713 78° East 501 577 33,000  Level FlightAware ADS-B
05:37AM 40.5060 -94.3786 78° East 501 577 33,000  Level FlightAware ADS-B
05:38AM 40.5203 -94.2884 78° East 500 575 33,000  Level FlightAware ADS-B
05:38AM 40.5344 -94.1987 78° East 500 575 33,000  Level FlightAware ADS-B
05:39AM 40.5505 -94.0957 78° East 500 575 33,000  Level FlightAware ADS-B
05:39AM 40.5664 -93.9938 78° East 500 575 33,000  Level FlightAware ADS-B
05:40AM 40.5808 -93.9003 79° East 500 575 33,000  Level FlightAware ADS-B
05:40AM 40.5974 -93.7927 78° East 501 577 33,000  Level FlightAware ADS-B
05:41AM 40.6111 -93.7024 79° East 502 578 33,000  Level FlightAware ADS-B
05:41AM 40.6248 -93.6123 79° East 503 579 33,000  Level FlightAware ADS-B
05:42AM 40.6386 -93.5210 79° East 504 580 33,000  Level FlightAware ADS-B
05:42AM 40.6522 -93.4304 79° East 506 582 33,000  Level FlightAware ADS-B
05:43AM 40.6658 -93.3388 79° East 506 582 33,000  Level FlightAware ADS-B
05:43AM 40.6795 -93.2466 79° East 510 587 33,000  Level FlightAware ADS-B
05:44AM 40.6932 -93.1538 79° East 510 587 33,000  Level FlightAware ADS-B
05:44AM 40.7111 -93.0320 79° East 510 587 33,000  Level FlightAware ADS-B
05:45AM 40.7272 -92.9136 79° East 509 586 33,000  Level Chicago Center
05:46AM 40.7550 -92.7303 79° East 509 586 33,000  Level Chicago Center
05:47AM 40.7808 -92.5464 79° East 511 588 33,000  Level Chicago Center
05:48AM 40.8067 -92.3633 79° East 509 586 33,000  Level Chicago Center
05:54AM 40.9370 -91.4020 79° East 513 590 33,000  Level FlightAware
05:54AM 40.9520 -91.2840 80° East 513 590 33,000  Level FlightAware
05:55AM 40.9770 -91.0920 80° East 510 587 33,000  Level FlightAware
05:56AM 40.9990 -90.9630 77° East 502 578 33,000  Level FlightAware
05:57AM 41.0290 -90.8380 72° East 498 573 33,000  Level FlightAware
05:57AM 41.0540 -90.7340 72° East 498 573 33,000  Level FlightAware
05:58AM 41.0850 -90.6030 73° East 500 575 33,000  Level FlightAware
05:59AM 41.1160 -90.4710 73° East 502 578 33,000  Level FlightAware
05:59AM 41.1450 -90.3460 73° East 503 579 33,000 -300 Level FlightAware
06:00AM 41.1740 -90.2190 73° East 503 579 32,600 -1,260 Descending FlightAware
06:01AM 41.2040 -90.0880 73° East 502 578 31,200 -2,520 Descending FlightAware
06:02AM 41.2370 -89.9450 73° East 501 577 29,000 -2,580 Descending FlightAware
06:02AM 41.2660 -89.8180 73° East 488 562 27,400 -2,580 Descending FlightAware
06:03AM 41.3020 -89.6610 73° East 486 559 24,800 -2,520 Descending FlightAware
06:04AM 41.3270 -89.5500 73° East 470 541 23,400 -2,400 Descending FlightAware
06:04AM 41.3420 -89.4830 73° East 469 540 22,300 -2,700 Descending FlightAware
06:05AM 41.3690 -89.3610 74° East 466 536 20,300 -2,820 Descending FlightAware
06:05AM 41.3840 -89.2950 73° East 465 535 19,100 -2,460 Descending FlightAware
06:06AM 41.4160 -89.1510 73° East 444 511 17,200 -2,280 Descending FlightAware
06:07AM 41.4390 -89.0440 74° East 436 502 15,600 -2,700 Descending FlightAware
06:08AM 41.4710 -88.8980 74° East 433 498 12,900 -2,100 Descending FlightAware
06:09AM 41.4840 -88.8380 74° East 412 474 12,400 -960 Descending FlightAware
06:10AM 41.5380 -88.6450 69° East 388 447 11,200 -540 Descending FlightAware
06:11AM 41.5920 -88.4990 64° Northeast 383 441 11,200  Level FlightAware
06:12AM 41.6420 -88.3580 65° Northeast 306 352 11,200 -660 Level FlightAware
06:14AM 41.6880 -88.2250 65° Northeast 298 343 9,500 -1,320 Descending FlightAware
06:14AM 41.7190 -88.1380 64° Northeast 286 329 8,300 -1,800 Descending FlightAware
06:14AM 41.7240 -88.1250 63° Northeast 283 326 8,100 -2,160 Descending FlightAware
06:15AM 41.7500 -88.0667 63° Northeast 282 325 6,700 -1,020 Descending Chicago TRACON
06:21AM 41.9470 -87.8530 63° Northeast 145 167 1,800 -900 Descending FlightAware
06:21AM 41.9690 -87.8780 320° Northwest 146 168 1,300 -960 Descending FlightAware
06:22AM 41.9800 -87.8910 319° Northwest 146 168 1,000 -900 Descending FlightAware
06:22AM 41.9940 -87.9060 321° Northwest 88 101 -2,040 Descending FlightAware
06:23AM 42.0010 -87.9140 320° Northwest 88 101  Level FlightAware
06:23AM 41.9960 -87.9100 149° Southeast 29 33  Level FlightAware
06:23AM 41.9950 -87.9090 143° Southeast 33 38  Level FlightAware